Waterman, Pennsylvania
Current Conditions -  °F | °C
As of 10:35 AM on Saturday 25 Oct 2014 (Local Time) from KIDI Reporting Station
Scattered Clouds Scattered Clouds  
Wind Chill: 12°   Ceiling: Unl
Heat Index: 12°   Visibility: 10mi
Dew Point:   Wind: 9mph
Humidity: 72%   Direction: 250°WSW
Pressure: 29.96"   Gusts: 15mph
Location:  40.5413°N, 79.1838°W
Report Text: KIDI 251435Z AUTO 25008G13KT 10SM FEW026 FEW032 SCT038 12/07 A2996 RMK A01
Loading
Personal Weather Stations






























Interactive Weather Map
Tropical Storm Tracking
New forecast layout! Learn more

10-Day Weather Forecast

Advertisements
Track Severe Weather on mobile